CYTZ/YTZ METAR and TAF weather

Enter ICAO airport designator
Station Type Date Time Source
CYTZ METAR 2019/09/20 20:00 UTC NOAA

CYTZ 202000Z AUTO 08007KT 9SM CLR 21/16 A3014 RMK SLP208 DENSITY ALT 800FT


Station Type Date Time Source
CYTZ Decoded METAR 2019/09/20 20:00 UTC NOAA

Toronto Island Airport Automated Reporting Station, Canada (CYTZ) 43-38N 079-24W
Sep 20, 2019 - 04:00 PM EDT / 2019.09.20 2000 UTC
Wind: from the E (080 degrees) at 8 MPH (7 KT):0
Visibility: 9 mile(s):0
Sky conditions: clear
Temperature: 69 F (21 C)
Dew Point: 60 F (16 C)
Relative Humidity: 73%
Pressure (altimeter): 30.14 in. Hg (1020 hPa)
ob: CYTZ 202000Z AUTO 08007KT 9SM CLR 21/16 A3014 RMK SLP208 DENSITY ALT 800FT
cycle: 20

Station Type Date Time Source
CYTZ TAF 2019/09/20 20:43 UTC NOAA

TAF CYTZ 201938Z 2020/2120 07008KT P6SM FEW050 SCT200
FM210100 VRB03KT P6SM SCT200 PROB30 2109/2112 2SM BR
FM211500 13010KT P6SM FEW025 SCT050
BECMG 2118/2120 09008KT
RMK FCST BASED ON AUTO OBS. NXT FCST BY 210200Z

Example: see airport list